createdAt,value
2022-11-05T00:01:37.634Z,11.98
2022-11-05T00:04:58.718Z,11.84
2022-11-05T00:08:21.747Z,11.70
2022-11-05T00:11:44.020Z,11.56
2022-11-05T00:15:04.939Z,11.60
2022-11-05T00:18:07.333Z,11.61
2022-11-05T00:21:29.759Z,11.47
2022-11-05T00:24:50.612Z,11.59
2022-11-05T00:27:53.742Z,11.55
2022-11-05T00:31:09.923Z,11.42
2022-11-05T00:34:12.341Z,11.24
2022-11-05T00:37:14.552Z,11.25
2022-11-05T00:40:16.856Z,11.03
2022-11-05T00:43:38.051Z,11.13
2022-11-05T00:46:40.335Z,11.10
2022-11-05T00:49:42.604Z,11.07
2022-11-05T00:52:57.188Z,11.15
2022-11-05T00:56:00.664Z,11.29
2022-11-05T00:59:02.964Z,11.14
2022-11-05T01:02:05.321Z,10.85
2022-11-05T01:05:08.171Z,11.00
2022-11-05T01:08:11.590Z,10.90
2022-11-05T01:11:34.183Z,10.95
2022-11-05T01:14:36.486Z,11.11
2022-11-05T01:17:38.974Z,11.10
2022-11-05T01:20:41.294Z,11.15
2022-11-05T01:23:43.583Z,11.07
2022-11-05T01:26:45.926Z,10.93
2022-11-05T01:29:48.364Z,10.89
2022-11-05T01:32:50.721Z,10.81
2022-11-05T01:35:53.553Z,11.00
2022-11-05T01:38:56.019Z,11.05
2022-11-05T01:41:58.942Z,10.84
2022-11-05T01:45:12.522Z,10.81
2022-11-05T01:48:18.503Z,10.99
2022-11-05T01:51:23.830Z,11.03
2022-11-05T01:54:28.315Z,11.06
2022-11-05T01:57:31.815Z,11.05
2022-11-05T02:00:34.967Z,11.02
2022-11-05T02:03:37.492Z,10.82
2022-11-05T02:06:46.256Z,11.02
2022-11-05T02:09:54.895Z,10.82
2022-11-05T02:12:57.223Z,10.77
2022-11-05T02:16:05.986Z,10.66
2022-11-05T02:19:48.160Z,10.89
2022-11-05T02:23:10.750Z,10.87
2022-11-05T02:26:32.708Z,10.64
2022-11-05T02:29:40.679Z,10.38
2022-11-05T02:32:55.112Z,10.57
2022-11-05T02:36:03.426Z,10.54
2022-11-05T02:39:12.351Z,10.65
2022-11-05T02:42:34.602Z,10.56
2022-11-05T02:45:47.079Z,10.66
2022-11-05T02:48:50.588Z,10.59
2022-11-05T02:52:04.843Z,10.70
2022-11-05T02:55:07.356Z,10.70
2022-11-05T02:58:10.607Z,10.51
2022-11-05T03:01:13.050Z,10.30
2022-11-05T03:04:17.590Z,10.41
2022-11-05T03:07:31.137Z,10.22
2022-11-05T03:10:41.849Z,10.42
2022-11-05T03:14:00.468Z,10.44
2022-11-05T03:17:30.829Z,10.45
2022-11-05T03:20:38.175Z,10.04
2022-11-05T03:24:21.877Z,10.26
2022-11-05T03:27:29.572Z,10.34
2022-11-05T03:30:33.113Z,10.44
2022-11-05T03:33:37.097Z,10.58
2022-11-05T03:36:42.121Z,10.51
2022-11-05T03:39:48.596Z,10.59
2022-11-05T03:42:53.547Z,10.56
2022-11-05T03:46:29.989Z,10.47
2022-11-05T03:49:56.363Z,10.43
2022-11-05T03:53:04.008Z,10.40
2022-11-05T03:56:10.953Z,10.29
2022-11-05T03:59:14.134Z,10.23
2022-11-05T04:02:18.903Z,10.40
2022-11-05T04:05:21.330Z,10.26
2022-11-05T04:08:43.488Z,10.42
2022-11-05T04:12:04.467Z,10.46
2022-11-05T04:15:07.400Z,10.46
2022-11-05T04:18:09.709Z,10.46
2022-11-05T04:21:30.544Z,10.17
2022-11-05T04:24:32.913Z,10.14
2022-11-05T04:27:35.762Z,10.30
2022-11-05T04:30:37.992Z,10.27
2022-11-05T04:33:40.276Z,10.26
2022-11-05T04:36:43.142Z,10.24
2022-11-05T04:39:45.400Z,10.36
2022-11-05T04:42:47.810Z,10.23
2022-11-05T04:45:50.096Z,10.13
2022-11-05T04:48:52.431Z,10.22
2022-11-05T04:51:54.719Z,10.16
2022-11-05T04:54:57.029Z,10.25
2022-11-05T04:57:59.337Z,10.19
2022-11-05T05:01:01.724Z,10.15
2022-11-05T05:04:04.232Z,10.11
2022-11-05T05:07:06.515Z,10.21
2022-11-05T05:10:10.179Z,10.16
2022-11-05T05:13:12.718Z,10.09
2022-11-05T05:16:26.154Z,10.08
2022-11-05T05:19:29.204Z,10.30
2022-11-05T05:22:31.431Z,10.18
2022-11-05T05:25:33.676Z,10.10
2022-11-05T05:28:36.082Z,10.09
2022-11-05T05:31:38.850Z,10.02
2022-11-05T05:34:41.133Z,9.70
2022-11-05T05:37:44.381Z,9.89
2022-11-05T05:40:46.745Z,10.11
2022-11-05T05:43:49.404Z,10.01
2022-11-05T05:46:54.174Z,9.90
2022-11-05T05:49:56.429Z,10.06
2022-11-05T05:52:58.726Z,10.08
2022-11-05T05:56:01.004Z,10.16
2022-11-05T05:59:05.171Z,10.10
2022-11-05T06:02:07.529Z,9.79
2022-11-05T06:05:10.100Z,9.90
2022-11-05T06:08:12.327Z,9.85
2022-11-05T06:11:14.806Z,9.90
2022-11-05T06:14:17.079Z,9.92
2022-11-05T06:17:19.463Z,9.67
2022-11-05T06:20:22.171Z,9.83
2022-11-05T06:23:24.463Z,9.97
2022-11-05T06:26:26.690Z,9.81
2022-11-05T06:29:28.999Z,10.04
2022-11-05T06:32:31.449Z,10.06
2022-11-05T06:35:33.815Z,10.17
2022-11-05T06:38:37.099Z,10.30
2022-11-05T06:42:04.157Z,10.24
2022-11-05T06:45:01.694Z,9.98
2022-11-05T06:48:04.097Z,10.04
2022-11-05T06:51:07.807Z,10.00
2022-11-05T06:54:10.153Z,9.87
2022-11-05T06:57:13.145Z,10.11
2022-11-05T07:00:15.900Z,10.18
2022-11-05T07:03:18.260Z,10.30
2022-11-05T07:06:21.162Z,10.20
2022-11-05T07:09:23.849Z,10.41
2022-11-05T07:12:26.091Z,10.24
2022-11-05T07:15:28.382Z,10.35
2022-11-05T07:18:30.663Z,10.37
2022-11-05T07:21:32.924Z,10.30
2022-11-05T07:24:35.225Z,10.27
2022-11-05T07:27:39.611Z,10.40
2022-11-05T07:30:41.933Z,10.55
2022-11-05T07:33:44.344Z,10.59
2022-11-05T07:36:46.608Z,10.44
2022-11-05T07:39:48.928Z,10.43
2022-11-05T07:42:56.351Z,10.27
2022-11-05T07:45:58.942Z,10.22
2022-11-05T07:49:01.218Z,10.33
2022-11-05T07:52:03.588Z,10.48
2022-11-05T07:55:06.480Z,10.51
2022-11-05T07:58:09.914Z,10.49
2022-11-05T08:01:12.231Z,10.59
2022-11-05T08:04:14.655Z,10.49
2022-11-05T08:07:16.891Z,10.59
2022-11-05T08:10:19.142Z,10.44
2022-11-05T08:13:21.450Z,10.50
2022-11-05T08:16:23.732Z,10.38
2022-11-05T08:19:26.041Z,10.51
2022-11-05T08:22:28.310Z,10.55
2022-11-05T08:25:30.683Z,10.58
2022-11-05T08:28:33.021Z,10.56
2022-11-05T08:31:37.189Z,10.69
2022-11-05T08:34:39.533Z,10.97
2022-11-05T08:37:41.864Z,11.14
2022-11-05T08:40:45.807Z,10.99
2022-11-05T08:43:48.132Z,10.89
2022-11-05T08:46:50.458Z,11.02
2022-11-05T08:49:53.007Z,10.96
2022-11-05T08:52:55.694Z,10.96
2022-11-05T08:55:59.148Z,11.18
2022-11-05T08:59:01.418Z,11.35
2022-11-05T09:02:04.036Z,11.32
2022-11-05T09:05:06.716Z,11.27
2022-11-05T09:08:11.678Z,11.37
2022-11-05T09:11:14.113Z,11.41
2022-11-05T09:14:16.388Z,11.35
2022-11-05T09:17:20.739Z,11.51
2022-11-05T09:20:23.750Z,11.51
2022-11-05T09:23:26.046Z,11.34
2022-11-05T09:26:28.338Z,11.50
2022-11-05T09:29:30.628Z,11.65
2022-11-05T09:32:32.930Z,11.66
2022-11-05T09:35:35.464Z,11.80
2022-11-05T09:38:37.730Z,11.58
2022-11-05T09:41:40.171Z,11.74
2022-11-05T09:44:47.724Z,11.84
2022-11-05T09:47:52.831Z,11.96
2022-11-05T09:50:55.197Z,12.21
2022-11-05T09:53:59.686Z,12.36
2022-11-05T09:57:03.414Z,12.21
2022-11-05T10:00:08.776Z,12.34
2022-11-05T10:03:14.565Z,12.42
2022-11-05T10:06:22.616Z,12.48
2022-11-05T10:09:53.015Z,12.56
2022-11-05T10:12:59.240Z,12.73
2022-11-05T10:16:08.069Z,12.67
2022-11-05T10:19:16.584Z,12.39
2022-11-05T10:22:19.670Z,12.56
2022-11-05T10:25:22.775Z,12.64
2022-11-05T10:28:28.227Z,12.75
2022-11-05T10:31:35.643Z,12.77
2022-11-05T10:34:39.090Z,12.72
2022-11-05T10:37:41.471Z,12.57
2022-11-05T10:41:03.667Z,12.54
2022-11-05T10:44:27.170Z,12.79
2022-11-05T10:47:53.841Z,12.60
2022-11-05T10:50:56.464Z,12.68
2022-11-05T10:54:03.898Z,12.67
2022-11-05T10:57:27.698Z,13.08
2022-11-05T11:00:30.193Z,12.90
2022-11-05T11:03:48.463Z,13.09
2022-11-05T11:06:55.710Z,13.08
2022-11-05T11:09:58.009Z,13.01
2022-11-05T11:13:00.475Z,12.96
2022-11-05T11:16:18.705Z,13.11
2022-11-05T11:19:25.322Z,13.15
2022-11-05T11:22:27.558Z,13.02
2022-11-05T11:25:35.960Z,13.17
2022-11-05T11:28:43.197Z,13.50
2022-11-05T11:31:45.936Z,13.56
2022-11-05T11:34:53.168Z,13.41
2022-11-05T11:37:57.470Z,13.59
2022-11-05T11:41:02.112Z,13.34
2022-11-05T11:44:12.576Z,13.50
2022-11-05T11:47:17.013Z,13.58
2022-11-05T11:50:31.573Z,13.56
2022-11-05T11:53:35.375Z,13.39
2022-11-05T11:56:45.919Z,13.57
2022-11-05T12:00:07.894Z,13.48
2022-11-05T12:03:36.422Z,13.57
2022-11-05T12:06:44.724Z,13.54
2022-11-05T12:09:52.965Z,13.53
2022-11-05T12:13:24.752Z,13.50
2022-11-05T12:16:39.091Z,13.48
2022-11-05T12:19:54.755Z,13.58
2022-11-05T12:23:00.096Z,13.74
2022-11-05T12:26:11.504Z,13.55
2022-11-05T12:29:35.701Z,13.66
2022-11-05T12:33:02.183Z,13.69
2022-11-05T12:36:50.177Z,13.61
2022-11-05T12:39:58.415Z,13.54
2022-11-05T12:43:36.209Z,13.56
2022-11-05T12:47:12.773Z,13.58
2022-11-05T12:50:21.068Z,13.57
2022-11-05T12:53:35.427Z,13.52
2022-11-05T12:56:45.363Z,13.49
2022-11-05T13:00:23.307Z,13.33
2022-11-05T13:03:56.070Z,13.40
2022-11-05T13:06:59.864Z,13.36
2022-11-05T13:10:07.331Z,13.46
2022-11-05T13:13:15.820Z,13.49
2022-11-05T13:16:32.406Z,13.54
2022-11-05T13:19:43.823Z,13.46
2022-11-05T13:22:48.852Z,13.40
2022-11-05T13:25:58.426Z,13.40
2022-11-05T13:29:34.712Z,13.50
2022-11-05T13:32:40.093Z,13.48
2022-11-05T13:36:13.202Z,13.33
2022-11-05T13:39:16.969Z,13.48
2022-11-05T13:42:56.104Z,13.49
2022-11-05T13:46:32.251Z,13.49
2022-11-05T13:49:46.637Z,13.33
2022-11-05T13:53:10.606Z,13.32
2022-11-05T13:56:41.463Z,13.32
2022-11-05T13:59:50.011Z,13.40
2022-11-05T14:02:55.877Z,13.41
2022-11-05T14:06:03.891Z,13.39
2022-11-05T14:09:11.598Z,13.33
2022-11-05T14:12:24.767Z,13.22
2022-11-05T14:15:29.069Z,13.31
2022-11-05T14:19:18.928Z,13.27
2022-11-05T14:22:33.259Z,13.27
2022-11-05T14:25:35.529Z,13.26
2022-11-05T14:28:37.858Z,13.25
2022-11-05T14:35:04.490Z,13.35
2022-11-05T14:38:20.162Z,13.29
2022-11-05T14:41:22.680Z,13.31
2022-11-05T14:44:25.797Z,13.29
2022-11-05T14:47:32.088Z,13.33
2022-11-05T14:50:45.037Z,13.27
2022-11-05T14:53:47.552Z,13.24
2022-11-05T14:56:56.654Z,13.03
2022-11-05T15:00:00.953Z,12.98
2022-11-05T15:03:25.234Z,13.09
2022-11-05T15:06:35.812Z,12.95
2022-11-05T15:09:56.849Z,13.04
2022-11-05T15:13:04.686Z,12.92
2022-11-05T15:16:07.202Z,12.79
2022-11-05T15:19:29.314Z,12.93
2022-11-05T15:22:36.153Z,12.79
2022-11-05T15:26:01.665Z,12.80
2022-11-05T15:29:15.395Z,12.93
2022-11-05T15:32:19.250Z,13.00
2022-11-05T15:35:29.775Z,12.93
2022-11-05T15:38:34.223Z,12.89
2022-11-05T15:41:36.516Z,12.79
2022-11-05T15:44:41.251Z,12.77
2022-11-05T15:47:46.066Z,12.72
2022-11-05T15:50:48.415Z,12.90
2022-11-05T15:57:28.371Z,12.90
2022-11-05T16:00:34.216Z,12.92
2022-11-05T16:03:38.667Z,12.89
2022-11-05T16:06:42.563Z,12.81
2022-11-05T16:09:59.184Z,12.86
2022-11-05T16:13:34.765Z,13.00
2022-11-05T16:16:37.086Z,12.88
2022-11-05T16:19:42.016Z,12.88
2022-11-05T16:22:45.566Z,12.91
2022-11-05T16:25:48.035Z,12.87
2022-11-05T16:28:51.347Z,12.86
2022-11-05T16:31:55.263Z,12.83
2022-11-05T16:34:59.655Z,12.72
2022-11-05T16:38:02.980Z,12.64
2022-11-05T16:41:05.415Z,12.74
2022-11-05T16:44:09.399Z,12.66
2022-11-05T16:47:11.688Z,12.71
2022-11-05T16:50:17.159Z,12.59
2022-11-05T16:53:19.538Z,12.40
2022-11-05T16:56:22.572Z,12.38
2022-11-05T16:59:24.801Z,12.38
2022-11-05T17:02:27.498Z,12.37
2022-11-05T17:05:31.325Z,12.27
2022-11-05T17:08:33.586Z,12.17
2022-11-05T17:11:35.930Z,12.05
2022-11-05T17:14:38.313Z,12.13
2022-11-05T17:17:40.552Z,12.14
2022-11-05T17:20:45.438Z,12.19
2022-11-05T17:23:47.742Z,12.11
2022-11-05T17:26:50.087Z,11.88
2022-11-05T17:29:52.352Z,11.95
2022-11-05T17:32:54.774Z,11.98
2022-11-05T17:35:57.443Z,11.90
2022-11-05T17:38:59.749Z,11.78
2022-11-05T17:42:02.402Z,11.79
2022-11-05T17:45:05.319Z,11.70
2022-11-05T17:48:09.386Z,11.70
2022-11-05T17:51:15.141Z,11.60
2022-11-05T17:54:17.485Z,11.88
2022-11-05T17:57:19.861Z,11.79
2022-11-05T18:00:23.459Z,11.90
2022-11-05T18:03:25.847Z,11.76
2022-11-05T18:06:28.090Z,11.84
2022-11-05T18:09:30.399Z,11.90
2022-11-05T18:12:32.832Z,11.94
2022-11-05T18:15:38.065Z,11.90
2022-11-05T18:18:40.491Z,11.64
2022-11-05T18:21:43.534Z,11.87
2022-11-05T18:24:46.712Z,11.87
2022-11-05T18:27:48.969Z,11.85
2022-11-05T18:30:51.457Z,11.90
2022-11-05T18:33:56.932Z,11.79
2022-11-05T18:36:59.198Z,11.83
2022-11-05T18:40:01.486Z,11.75
2022-11-05T18:43:03.753Z,11.72
2022-11-05T18:46:07.737Z,11.93
2022-11-05T18:49:12.036Z,11.85
2022-11-05T18:52:14.444Z,11.92
2022-11-05T18:55:16.682Z,11.81
2022-11-05T18:58:19.167Z,12.03
2022-11-05T19:01:24.572Z,11.93
2022-11-05T19:04:27.131Z,11.85
2022-11-05T19:07:29.602Z,11.93
2022-11-05T19:10:31.962Z,11.87
2022-11-05T19:13:34.215Z,11.89
2022-11-05T19:16:36.742Z,11.81
2022-11-05T19:19:39.064Z,11.94
2022-11-05T19:22:41.303Z,11.89
2022-11-05T19:25:43.521Z,12.02
2022-11-05T19:28:45.813Z,11.97
2022-11-05T19:31:48.224Z,12.01
2022-11-05T19:34:50.468Z,12.02
2022-11-05T19:37:53.606Z,11.96
2022-11-05T19:40:55.870Z,11.80
2022-11-05T19:43:59.185Z,11.83
2022-11-05T19:47:01.541Z,11.96
2022-11-05T19:50:04.886Z,11.93
2022-11-05T19:53:07.190Z,11.94
2022-11-05T19:56:14.985Z,11.86
2022-11-05T19:59:17.365Z,11.81
2022-11-05T20:02:19.721Z,11.93
2022-11-05T20:05:22.143Z,11.89
2022-11-05T20:08:24.454Z,11.96
2022-11-05T20:11:27.030Z,11.95
2022-11-05T20:14:30.010Z,11.77
2022-11-05T20:17:32.303Z,11.89
2022-11-05T20:20:34.689Z,11.91
2022-11-05T20:23:37.032Z,12.06
2022-11-05T20:26:39.527Z,11.94
2022-11-05T20:29:42.692Z,11.96
2022-11-05T20:32:44.966Z,11.86
2022-11-05T20:35:47.316Z,11.91
2022-11-05T20:38:51.415Z,11.91
2022-11-05T20:41:53.788Z,11.84
2022-11-05T20:44:56.107Z,11.87
2022-11-05T20:47:58.574Z,11.81
2022-11-05T20:51:09.077Z,11.72
2022-11-05T20:54:11.347Z,11.86
2022-11-05T20:57:13.612Z,11.85
2022-11-05T21:00:16.279Z,11.85
2022-11-05T21:03:19.050Z,11.74
2022-11-05T21:06:21.500Z,11.78
2022-11-05T21:09:23.852Z,11.96
2022-11-05T21:12:26.130Z,11.87
2022-11-05T21:15:28.410Z,11.89
2022-11-05T21:18:33.202Z,11.76
2022-11-05T21:21:40.807Z,11.81
2022-11-05T21:24:43.995Z,11.85
2022-11-05T21:27:46.292Z,11.95
2022-11-05T21:30:49.206Z,11.96
2022-11-05T21:33:55.162Z,12.00
2022-11-05T21:36:57.928Z,11.94
2022-11-05T21:40:00.242Z,11.81
2022-11-05T21:43:02.524Z,11.89
2022-11-05T21:46:05.062Z,11.93
2022-11-05T21:49:07.613Z,12.08
2022-11-05T21:52:30.089Z,12.00
2022-11-05T21:56:07.704Z,11.98
2022-11-05T21:59:40.467Z,12.11
2022-11-05T22:02:42.852Z,12.05
2022-11-05T22:05:45.225Z,12.03
2022-11-05T22:08:47.448Z,11.82
2022-11-05T22:11:49.799Z,11.88
2022-11-05T22:14:52.793Z,11.90
2022-11-05T22:17:55.016Z,11.89
2022-11-05T22:20:57.295Z,11.73
2022-11-05T22:23:59.609Z,11.99
2022-11-05T22:27:04.490Z,11.95
2022-11-05T22:30:07.092Z,11.90
2022-11-05T22:33:09.368Z,11.93
2022-11-05T22:36:12.136Z,12.03
2022-11-05T22:39:14.540Z,11.96
2022-11-05T22:42:16.812Z,11.81
2022-11-05T22:45:19.057Z,11.88
2022-11-05T22:48:21.326Z,11.91
2022-11-05T22:51:26.421Z,11.81
2022-11-05T22:54:28.786Z,11.91
2022-11-05T22:57:31.138Z,12.01
2022-11-05T23:00:36.543Z,12.05
2022-11-05T23:03:40.374Z,12.00
2022-11-05T23:07:01.231Z,11.92
2022-11-05T23:10:22.087Z,11.94
2022-11-05T23:13:24.366Z,11.80
2022-11-05T23:16:45.254Z,11.97
2022-11-05T23:20:05.940Z,11.95
2022-11-05T23:23:30.841Z,11.98
2022-11-05T23:26:50.189Z,11.99
2022-11-05T23:29:52.484Z,11.97
2022-11-05T23:32:56.038Z,11.97
2022-11-05T23:36:17.067Z,12.00
2022-11-05T23:39:19.328Z,11.87
2022-11-05T23:42:40.743Z,12.02
2022-11-05T23:45:59.236Z,11.96
2022-11-05T23:49:01.463Z,11.97
2022-11-05T23:52:03.828Z,11.97
2022-11-05T23:55:06.476Z,11.98
2022-11-05T23:58:09.134Z,12.00
